Time;durP1;ratioP1;P1;durP2;ratioP2;P2;SDS_P1;SDS_P2;PMS_P1;PMS_P2;Temp;Humidity;BMP_temperature;BMP_pressure;BME280_temperature;BME280_humidity;BME280_pressure;Samples;Min_cycle;Max_cycle;Signal;HPM_P1;HPM_P2
2023/06/26 00:00:27;;;;;;;5.75;3.90;;;23.00;97.10;;;;;;5092395;28;20036;-50
2023/06/26 00:02:53;;;;;;;6.45;4.15;;;23.00;97.30;;;;;;5092393;28;20036;-52
2023/06/26 00:05:18;;;;;;;6.55;3.80;;;23.00;97.30;;;;;;5092488;28;20501;-53
2023/06/26 00:07:44;;;;;;;9.32;3.92;;;22.90;97.50;;;;;;5074285;28;20028;-54
2023/06/26 00:10:10;;;;;;;9.98;3.67;;;22.80;97.60;;;;;;5091903;28;20028;-53
2023/06/26 00:12:35;;;;;;;7.75;4.07;;;22.90;97.50;;;;;;5073951;28;20028;-53
2023/06/26 00:15:01;;;;;;;5.82;3.92;;;22.80;97.70;;;;;;5092210;28;20468;-51
2023/06/26 00:17:27;;;;;;;7.38;4.20;;;22.80;97.70;;;;;;5092191;28;20030;-54
2023/06/26 00:19:53;;;;;;;6.43;3.80;;;22.80;97.60;;;;;;5092096;28;20036;-52
2023/06/26 00:22:18;;;;;;;7.05;4.38;;;22.90;97.40;;;;;;5091811;28;20031;-54
2023/06/26 00:24:47;;;;;;;6.13;3.78;;;22.90;97.40;;;;;;5092009;28;20057;-53
2023/06/26 00:27:13;;;;;;;6.78;4.03;;;22.90;97.50;;;;;;5092007;28;20071;-53
2023/06/26 00:29:38;;;;;;;6.57;4.13;;;22.90;97.60;;;;;;5091769;28;20055;-53
2023/06/26 00:32:04;;;;;;;7.80;4.45;;;23.00;97.60;;;;;;5073206;28;20028;-50
2023/06/26 00:34:32;;;;;;;5.90;3.80;;;22.90;97.80;;;;;;5072695;28;20050;-50
2023/06/26 00:36:59;;;;;;;6.88;4.10;;;22.90;97.70;;;;;;5073306;28;20508;-53
2023/06/26 00:39:25;;;;;;;6.57;4.07;;;22.90;97.80;;;;;;5073513;28;20034;-52
2023/06/26 00:41:53;;;;;;;6.88;4.30;;;22.80;97.90;;;;;;5091313;28;20032;-53
2023/06/26 00:44:19;;;;;;;5.87;3.90;;;22.80;98.20;;;;;;5073338;28;20088;-52
2023/06/26 00:46:45;;;;;;;6.63;4.03;;;22.70;98.00;;;;;;5091439;28;20457;-48
2023/06/26 00:49:11;;;;;;;6.32;4.40;;;22.60;98.10;;;;;;5073143;28;20452;-53
2023/06/26 00:51:36;;;;;;;7.00;4.68;;;22.60;98.20;;;;;;5091184;28;20052;-50
2023/06/26 00:54:02;;;;;;;6.53;3.97;;;22.60;98.30;;;;;;5073157;28;20496;-51
2023/06/26 00:56:31;;;;;;;6.28;3.92;;;22.50;98.40;;;;;;5091438;28;20103;-52
2023/06/26 00:58:57;;;;;;;6.80;4.13;;;22.50;98.30;;;;;;5072941;28;20062;-53
2023/06/26 01:01:25;;;;;;;5.95;4.00;;;22.50;98.50;;;;;;5072824;28;20028;-50
2023/06/26 01:03:53;;;;;;;6.10;3.85;;;22.50;98.60;;;;;;5056395;28;20404;-53
2023/06/26 01:06:21;;;;;;;6.05;3.90;;;22.40;98.70;;;;;;5091054;28;20067;-51
2023/06/26 01:08:47;;;;;;;6.88;4.15;;;22.40;98.70;;;;;;5090752;28;20036;-53
2023/06/26 01:11:14;;;;;;;6.43;3.92;;;22.40;98.80;;;;;;5072643;28;20117;-52
2023/06/26 01:13:42;;;;;;;6.90;4.78;;;22.30;99.00;;;;;;5073161;28;20495;-53
2023/06/26 01:16:09;;;;;;;6.32;3.97;;;22.30;98.90;;;;;;5072964;28;20115;-54
2023/06/26 01:18:37;;;;;;;6.78;4.50;;;22.30;99.00;;;;;;5072649;28;20042;-52
2023/06/26 01:21:04;;;;;;;6.63;4.13;;;22.20;99.00;;;;;;5072736;28;20032;-52
2023/06/26 01:23:57;;;;;;;6.32;4.20;;;22.20;99.00;;;;;;5072482;28;20039;-51
2023/06/26 01:26:23;;;;;;;6.82;4.32;;;22.20;99.10;;;;;;5072891;28;20085;-53
2023/06/26 01:28:53;;;;;;;5.65;3.97;;;22.20;99.20;;;;;;5090702;28;20029;-53
2023/06/26 01:31:19;;;;;;;6.25;3.85;;;22.10;99.40;;;;;;5072443;28;20489;-52
2023/06/26 01:33:46;;;;;;;7.60;4.57;;;22.00;99.20;;;;;;5072726;28;20480;-52
2023/06/26 01:36:12;;;;;;;5.88;3.70;;;21.90;99.30;;;;;;5072790;28;20556;-52
2023/06/26 01:38:38;;;;;;;7.05;4.15;;;21.90;99.60;;;;;;5072591;28;20131;-54
2023/06/26 01:41:06;;;;;;;6.05;4.10;;;21.90;99.30;;;;;;5090484;28;20106;-53
2023/06/26 01:43:49;;;;;;;7.37;4.40;;;21.80;99.30;;;;;;5072614;28;20028;-54
2023/06/26 01:46:22;;;;;;;6.88;4.22;;;21.80;99.40;;;;;;5091554;28;20829;-53
2023/06/26 01:49:21;;;;;;;8.07;4.35;;;21.80;99.20;;;;;;5076570;28;20024;-54
2023/06/26 01:52:06;;;;;;;7.85;4.15;;;21.80;99.40;;;;;;5059862;28;20029;-54
2023/06/26 01:54:39;;;;;;;6.97;4.50;;;21.70;99.40;;;;;;5076794;28;20415;-52
2023/06/26 01:57:06;;;;;;;8.10;4.53;;;21.80;99.40;;;;;;5076480;28;20032;-52
2023/06/26 01:59:34;;;;;;;6.90;4.20;;;21.70;99.50;;;;;;5094567;28;20488;-52
2023/06/26 02:02:01;;;;;;;6.38;4.22;;;21.70;99.60;;;;;;5076222;28;20028;-52
2023/06/26 02:04:27;;;;;;;7.10;4.25;;;21.70;99.60;;;;;;5094574;28;20028;-54
2023/06/26 02:06:52;;;;;;;7.15;4.53;;;21.60;99.60;;;;;;5076194;28;20036;-52
2023/06/26 02:09:18;;;;;;;7.38;4.63;;;21.60;99.80;;;;;;5076084;28;20036;-51
2023/06/26 02:11:44;;;;;;;6.53;4.32;;;21.50;99.90;;;;;;5076343;28;20028;-52
2023/06/26 02:14:10;;;;;;;6.30;4.40;;;21.50;99.90;;;;;;5076416;28;20420;-52
2023/06/26 02:16:36;;;;;;;7.90;4.75;;;21.50;99.90;;;;;;5076164;28;20024;-53
2023/06/26 02:19:02;;;;;;;6.20;3.97;;;21.40;99.90;;;;;;5094298;28;20396;-52
2023/06/26 02:21:27;;;;;;;5.70;4.15;;;21.40;99.90;;;;;;5093912;28;20032;-50
2023/06/26 02:23:55;;;;;;;8.30;4.97;;;21.40;99.90;;;;;;5075907;28;20111;-53
2023/06/26 02:26:21;;;;;;;5.85;3.92;;;21.40;99.90;;;;;;5075874;28;20142;-53
2023/06/26 02:28:46;;;;;;;7.35;4.75;;;21.40;99.90;;;;;;5094015;28;20101;-53
2023/06/26 02:31:12;;;;;;;6.93;4.22;;;21.40;99.90;;;;;;5075687;28;20036;-51
2023/06/26 02:33:38;;;;;;;6.65;4.32;;;21.50;99.90;;;;;;5075926;28;20074;-53
2023/06/26 02:36:04;;;;;;;7.40;4.25;;;21.50;99.90;;;;;;5075717;28;20616;-52
2023/06/26 02:38:30;;;;;;;6.68;4.28;;;21.40;99.90;;;;;;5075519;28;20036;-52
2023/06/26 02:40:55;;;;;;;7.22;4.20;;;21.50;99.90;;;;;;5093790;28;20043;-52
2023/06/26 02:43:21;;;;;;;7.40;4.35;;;21.50;99.90;;;;;;5075528;28;20077;-54
2023/06/26 02:45:47;;;;;;;5.85;3.85;;;21.50;99.90;;;;;;5075470;28;20046;-53
2023/06/26 02:48:12;;;;;;;6.68;4.20;;;21.50;99.90;;;;;;5075434;28;20047;-53
2023/06/26 02:50:40;;;;;;;7.68;4.63;;;21.50;99.90;;;;;;5075299;28;20484;-51
2023/06/26 02:53:09;;;;;;;7.43;4.22;;;21.60;99.90;;;;;;5059344;28;20555;-54
2023/06/26 02:55:37;;;;;;;5.75;4.22;;;21.60;99.90;;;;;;5075472;28;20024;-54
2023/06/26 02:58:03;;;;;;;8.88;4.95;;;21.60;99.90;;;;;;5074054;28;20032;-52
2023/06/26 03:00:29;;;;;;;7.25;5.15;;;21.50;99.90;;;;;;5075316;28;20024;-52
2023/06/26 03:02:56;;;;;;;8.38;5.22;;;21.50;99.90;;;;;;5075263;28;20082;-54
2023/06/26 03:05:23;;;;;;;6.68;4.15;;;21.40;99.90;;;;;;5075174;28;20023;-54
2023/06/26 03:07:50;;;;;;;7.28;4.47;;;21.50;99.90;;;;;;5075328;28;20033;-52
2023/06/26 03:10:16;;;;;;;8.52;4.30;;;21.40;99.90;;;;;;5075056;28;20077;-51
2023/06/26 03:12:43;;;;;;;6.88;4.68;;;21.50;99.90;;;;;;5075285;28;20480;-52
2023/06/26 03:15:11;;;;;;;8.95;4.60;;;21.50;99.90;;;;;;5075269;28;20069;-52
2023/06/26 03:17:37;;;;;;;7.22;4.75;;;21.60;99.90;;;;;;5075451;28;20489;-55
2023/06/26 03:20:07;;;;;;;8.27;4.50;;;21.80;99.90;;;;;;5074828;28;20031;-52
2023/06/26 03:22:46;;;;;;;6.18;4.53;;;21.80;99.90;;;;;;5075160;28;20051;-52
2023/06/26 03:25:13;;;;;;;9.75;4.32;;;21.90;99.90;;;;;;5075012;28;20561;-50
2023/06/26 03:27:39;;;;;;;7.65;4.38;;;22.00;99.90;;;;;;5074953;28;20032;-49
2023/06/26 03:30:06;;;;;;;6.10;4.00;;;22.00;99.90;;;;;;5074823;28;20498;-51
2023/06/26 03:32:33;;;;;;;7.82;4.68;;;22.00;99.90;;;;;;5074801;28;20020;-51
2023/06/26 03:35:03;;;;;;;8.25;4.35;;;22.00;99.90;;;;;;5074645;28;20032;-53
2023/06/26 03:37:29;;;;;;;7.30;4.10;;;22.00;99.90;;;;;;5074719;28;20512;-50
2023/06/26 03:39:54;;;;;;;7.65;4.03;;;22.00;99.90;;;;;;5074474;28;20032;-52
2023/06/26 03:42:22;;;;;;;6.82;3.90;;;22.10;99.90;;;;;;5074402;28;20035;-50
2023/06/26 03:44:47;;;;;;;6.55;3.83;;;22.10;99.90;;;;;;5074602;28;20055;-52
2023/06/26 03:47:15;;;;;;;6.43;4.07;;;22.10;99.50;;;;;;5074497;28;20032;-52
2023/06/26 03:49:41;;;;;;;7.03;4.05;;;22.00;99.60;;;;;;5074096;28;20518;-53
2023/06/26 03:52:06;;;;;;;5.72;3.67;;;22.10;99.60;;;;;;5074348;28;20067;-53
2023/06/26 03:54:33;;;;;;;6.13;3.70;;;22.00;99.50;;;;;;5074224;28;20028;-50
2023/06/26 03:56:59;;;;;;;7.25;3.97;;;22.00;99.40;;;;;;5074364;28;20066;-52
2023/06/26 03:59:24;;;;;;;5.80;3.55;;;21.90;99.50;;;;;;5074104;28;20051;-48
2023/06/26 04:01:50;;;;;;;5.68;3.40;;;22.00;99.30;;;;;;5073929;28;20034;-50
2023/06/26 04:04:16;;;;;;;6.85;3.63;;;21.90;99.20;;;;;;5074075;28;20283;-50
2023/06/26 04:06:42;;;;;;;6.10;3.50;;;22.00;98.80;;;;;;5074262;28;20024;-53
2023/06/26 04:09:07;;;;;;;7.32;3.78;;;22.00;98.80;;;;;;5073646;28;20545;-52
2023/06/26 04:11:33;;;;;;;5.68;3.25;;;22.00;98.90;;;;;;5091889;28;20025;-53
2023/06/26 04:13:58;;;;;;;5.50;3.20;;;21.90;98.80;;;;;;5092155;28;20040;-52
2023/06/26 04:16:25;;;;;;;5.78;3.47;;;21.90;98.80;;;;;;5092110;28;20036;-54
2023/06/26 04:18:52;;;;;;;7.50;3.47;;;21.90;98.90;;;;;;5073666;28;20020;-50
2023/06/26 04:21:18;;;;;;;6.13;3.75;;;21.90;99.10;;;;;;5091750;28;20069;-53
2023/06/26 04:23:43;;;;;;;6.40;3.55;;;21.90;99.20;;;;;;5091871;28;20024;-54
2023/06/26 04:26:14;;;;;;;5.97;3.60;;;21.90;99.10;;;;;;5092317;28;20085;-53
2023/06/26 04:28:40;;;;;;;6.97;3.67;;;21.90;99.10;;;;;;5091657;28;20105;-52
2023/06/26 04:31:05;;;;;;;6.28;3.60;;;21.90;99.20;;;;;;5091539;28;20488;-54
2023/06/26 04:33:31;;;;;;;6.22;3.63;;;21.90;99.30;;;;;;5073583;28;20115;-53
2023/06/26 04:35:57;;;;;;;6.90;3.53;;;21.90;99.60;;;;;;5073580;28;20114;-54
2023/06/26 04:38:23;;;;;;;6.65;3.92;;;21.90;99.80;;;;;;5091507;28;20036;-52
2023/06/26 04:40:49;;;;;;;8.27;4.32;;;22.00;99.80;;;;;;5091426;28;20028;-52
2023/06/26 04:43:15;;;;;;;7.85;4.22;;;22.00;99.80;;;;;;5091475;28;20039;-54
2023/06/26 04:45:40;;;;;;;7.35;4.40;;;22.10;99.90;;;;;;5091347;28;20024;-54
2023/06/26 04:48:06;;;;;;;6.88;3.97;;;22.10;99.80;;;;;;5073346;28;20488;-54
2023/06/26 04:50:33;;;;;;;7.28;4.32;;;22.00;99.90;;;;;;5091273;28;20429;-53
2023/06/26 04:52:59;;;;;;;6.30;3.78;;;22.00;99.90;;;;;;5091277;28;20054;-54
2023/06/26 04:55:25;;;;;;;6.88;4.53;;;22.00;99.90;;;;;;5091429;28;20024;-54
2023/06/26 04:57:51;;;;;;;7.20;4.85;;;22.10;99.90;;;;;;5091373;28;20476;-50
2023/06/26 05:00:17;;;;;;;6.63;4.03;;;22.00;99.90;;;;;;5090854;28;20036;-52
2023/06/26 05:02:42;;;;;;;7.45;3.75;;;22.10;99.90;;;;;;5091145;28;20472;-53
2023/06/26 05:05:08;;;;;;;8.77;4.07;;;22.20;99.90;;;;;;5091353;28;20085;-52
2023/06/26 05:07:34;;;;;;;7.63;4.60;;;22.10;99.90;;;;;;5091107;28;20043;-53
2023/06/26 05:09:59;;;;;;;9.10;4.00;;;22.10;99.90;;;;;;5072757;28;20028;-52
2023/06/26 05:12:25;;;;;;;6.93;4.03;;;22.10;99.90;;;;;;5090818;28;20107;-53
2023/06/26 05:14:51;;;;;;;7.28;3.75;;;22.10;99.60;;;;;;5090964;28;20024;-53
2023/06/26 05:17:16;;;;;;;6.63;3.55;;;22.10;99.60;;;;;;5072930;28;20435;-51
2023/06/26 05:19:42;;;;;;;6.95;3.83;;;22.00;99.40;;;;;;5091120;28;20054;-53
2023/06/26 05:22:08;;;;;;;7.03;3.40;;;21.90;99.50;;;;;;5090170;28;20329;-51
2023/06/26 05:24:36;;;;;;;6.40;3.30;;;21.90;99.50;;;;;;5090779;28;20051;-52
2023/06/26 05:27:02;;;;;;;5.45;2.97;;;21.80;99.60;;;;;;5090663;28;20511;-53
2023/06/26 05:29:29;;;;;;;7.72;3.88;;;21.80;99.90;;;;;;5090607;28;20043;-52
2023/06/26 05:31:56;;;;;;;6.75;3.47;;;21.80;99.90;;;;;;5090515;28;20043;-53
2023/06/26 05:34:23;;;;;;;5.78;3.38;;;21.80;99.90;;;;;;5090662;28;20402;-52
2023/06/26 05:36:51;;;;;;;10.15;4.20;;;22.00;99.90;;;;;;5090616;28;20032;-52
2023/06/26 05:39:18;;;;;;;7.75;4.07;;;22.00;99.70;;;;;;5090624;28;20344;-49
2023/06/26 05:41:47;;;;;;;6.38;3.30;;;22.10;99.60;;;;;;5090443;28;20036;-54
2023/06/26 05:44:12;;;;;;;9.10;4.10;;;22.00;99.40;;;;;;5090645;28;20039;-54
2023/06/26 05:46:38;;;;;;;7.78;3.88;;;22.00;99.80;;;;;;5090521;28;20434;-53
2023/06/26 05:49:03;;;;;;;7.93;3.70;;;22.10;99.30;;;;;;5090577;28;20020;-53
2023/06/26 05:51:29;;;;;;;6.40;3.40;;;22.20;99.50;;;;;;5090573;28;20024;-50
2023/06/26 05:53:55;;;;;;;8.20;4.55;;;22.10;99.30;;;;;;5090717;28;20036;-53
2023/06/26 05:56:21;;;;;;;8.48;4.28;;;22.00;99.30;;;;;;5090466;28;20067;-54
2023/06/26 05:58:48;;;;;;;6.28;3.03;;;21.90;99.70;;;;;;5090371;28;20028;-53
2023/06/26 06:01:13;;;;;;;7.65;3.50;;;21.90;99.90;;;;;;5090213;28;20035;-53
2023/06/26 06:03:39;;;;;;;7.00;4.03;;;21.80;99.80;;;;;;5090574;28;20040;-53
2023/06/26 06:06:05;;;;;;;7.03;3.45;;;21.80;99.90;;;;;;5090603;28;20042;-52
2023/06/26 06:08:31;;;;;;;6.60;3.08;;;21.80;99.90;;;;;;5090359;28;20106;-53
2023/06/26 06:10:57;;;;;;;10.88;5.15;;;21.80;99.90;;;;;;5090110;28;20058;-52
2023/06/26 06:13:23;;;;;;;7.57;3.67;;;21.90;99.90;;;;;;5090423;28;20054;-52
2023/06/26 06:15:49;;;;;;;12.55;6.78;;;22.10;99.90;;;;;;5090574;28;20039;-54
2023/06/26 06:18:15;;;;;;;8.20;4.55;;;22.10;99.90;;;;;;5090250;28;20032;-51
2023/06/26 06:20:40;;;;;;;11.10;5.07;;;22.00;99.90;;;;;;5090322;28;20058;-53
2023/06/26 06:23:06;;;;;;;8.02;4.82;;;21.90;99.90;;;;;;5072367;28;20400;-54
2023/06/26 06:25:32;;;;;;;8.65;4.25;;;21.80;99.90;;;;;;5090102;28;20063;-54
2023/06/26 06:27:57;;;;;;;10.60;3.90;;;21.70;99.90;;;;;;5090261;28;20025;-50
2023/06/26 06:30:23;;;;;;;6.78;3.30;;;21.70;99.90;;;;;;5090070;28;20506;-53
2023/06/26 06:32:51;;;;;;;8.48;5.05;;;21.90;99.90;;;;;;5092014;28;20028;-54
2023/06/26 06:35:19;;;;;;;9.90;4.85;;;22.00;99.90;;;;;;5094175;28;20028;-53
2023/06/26 06:37:45;;;;;;;8.85;3.58;;;22.10;99.90;;;;;;5094321;28;20047;-53
2023/06/26 06:40:11;;;;;;;8.85;3.55;;;22.10;99.90;;;;;;5093813;28;20032;-55
2023/06/26 06:42:37;;;;;;;7.95;3.40;;;22.10;99.90;;;;;;5094178;28;20035;-54
2023/06/26 06:45:04;;;;;;;6.72;3.00;;;22.10;99.90;;;;;;5094067;28;20431;-55
2023/06/26 06:47:30;;;;;;;5.85;3.13;;;22.20;99.90;;;;;;5093864;28;20040;-54
2023/06/26 06:49:55;;;;;;;6.03;3.45;;;22.30;99.90;;;;;;5093964;28;20097;-53
2023/06/26 06:52:21;;;;;;;9.15;3.15;;;22.50;99.90;;;;;;5093500;28;20032;-48
2023/06/26 06:54:54;;;;;;;8.23;3.80;;;22.50;99.80;;;;;;5093475;28;20055;-53
2023/06/26 06:57:21;;;;;;;8.75;3.42;;;22.40;99.90;;;;;;5093584;28;20024;-53
2023/06/26 06:59:47;;;;;;;8.82;3.40;;;22.40;99.90;;;;;;5093352;28;20035;-48
2023/06/26 07:02:14;;;;;;;7.40;3.20;;;22.50;99.90;;;;;;5093556;28;20039;-48
2023/06/26 07:04:39;;;;;;;6.53;2.72;;;22.60;99.90;;;;;;5093346;28;20032;-48
2023/06/26 07:07:05;;;;;;;6.20;3.10;;;22.70;99.90;;;;;;5093192;28;20047;-49
2023/06/26 07:09:31;;;;;;;6.07;2.85;;;22.60;99.80;;;;;;5093107;28;20503;-49
2023/06/26 07:11:57;;;;;;;8.52;3.75;;;22.50;99.90;;;;;;5093004;28;20131;-49
2023/06/26 07:14:22;;;;;;;8.25;3.58;;;22.40;99.90;;;;;;5093334;28;20024;-52
2023/06/26 07:16:48;;;;;;;9.45;4.63;;;22.40;99.90;;;;;;5092856;28;20047;-51
2023/06/26 07:19:13;;;;;;;7.57;3.80;;;22.40;99.90;;;;;;5093222;28;20028;-52
2023/06/26 07:21:41;;;;;;;8.80;4.47;;;22.30;99.90;;;;;;5074698;28;20032;-48
2023/06/26 07:24:06;;;;;;;8.50;4.10;;;22.40;99.90;;;;;;5093007;28;20036;-49
2023/06/26 07:26:32;;;;;;;10.75;4.65;;;22.50;99.90;;;;;;5092824;28;20107;-49
2023/06/26 07:28:57;;;;;;;9.57;3.55;;;22.60;99.90;;;;;;5092714;28;20404;-50
2023/06/26 07:31:23;;;;;;;7.28;3.25;;;22.70;99.90;;;;;;5092621;28;20024;-49
2023/06/26 07:33:49;;;;;;;6.25;3.30;;;22.80;99.80;;;;;;5092840;28;20405;-53
2023/06/26 07:36:14;;;;;;;7.97;3.92;;;22.90;99.90;;;;;;5092635;28;20048;-49
2023/06/26 07:38:40;;;;;;;6.65;2.95;;;22.90;99.70;;;;;;5092542;28;20032;-51
2023/06/26 07:41:05;;;;;;;9.15;3.05;;;23.00;99.70;;;;;;5092038;28;20020;-50
2023/06/26 07:43:31;;;;;;;9.32;3.53;;;23.00;99.70;;;;;;5092463;28;20024;-53
2023/06/26 07:45:58;;;;;;;10.80;3.53;;;23.00;99.30;;;;;;5098579;28;20047;-49
2023/06/26 07:48:25;;;;;;;9.88;3.83;;;23.00;99.70;;;;;;5080567;28;20492;-50
2023/06/26 07:50:50;;;;;;;11.00;4.07;;;22.90;99.70;;;;;;5098520;28;20028;-49
2023/06/26 07:53:16;;;;;;;10.85;3.70;;;22.80;99.90;;;;;;5098260;28;20036;-49
2023/06/26 07:55:43;;;;;;;6.97;3.58;;;22.90;99.90;;;;;;5098537;28;20507;-50
2023/06/26 07:58:09;;;;;;;8.43;3.67;;;22.90;99.90;;;;;;5079771;28;20035;-51
2023/06/26 08:00:34;;;;;;;8.48;3.28;;;22.90;99.90;;;;;;5074780;28;20119;-50
2023/06/26 08:03:00;;;;;;;8.82;3.72;;;23.00;99.80;;;;;;5092402;28;20111;-53
2023/06/26 08:05:25;;;;;;;6.30;3.25;;;23.00;99.70;;;;;;5092089;28;20020;-52
2023/06/26 08:07:51;;;;;;;8.57;3.20;;;23.10;99.50;;;;;;5091892;28;20424;-51
2023/06/26 08:10:17;;;;;;;9.02;3.53;;;23.30;99.10;;;;;;5091814;28;20039;-51
2023/06/26 08:12:44;;;;;;;9.35;2.70;;;23.20;98.90;;;;;;5073763;28;20097;-50
2023/06/26 08:15:11;;;;;;;9.20;3.13;;;23.30;99.40;;;;;;5091999;28;20031;-51
2023/06/26 08:17:38;;;;;;;6.18;2.88;;;23.20;98.50;;;;;;5092067;28;20036;-53
2023/06/26 08:20:04;;;;;;;7.35;3.15;;;23.10;98.60;;;;;;5091682;28;20106;-52
2023/06/26 08:22:30;;;;;;;6.88;3.03;;;22.90;98.80;;;;;;5091947;28;20055;-53
2023/06/26 08:24:56;;;;;;;8.75;3.00;;;22.80;99.10;;;;;;5091727;28;20028;-54
2023/06/26 08:27:22;;;;;;;5.00;2.88;;;22.80;99.30;;;;;;5091692;28;20028;-54
2023/06/26 08:29:47;;;;;;;7.57;2.83;;;22.80;98.80;;;;;;5091502;28;20491;-53
2023/06/26 08:32:13;;;;;;;5.60;2.63;;;22.80;98.80;;;;;;5091507;28;20043;-55
2023/06/26 08:34:39;;;;;;;7.18;2.70;;;22.90;98.80;;;;;;5091442;28;20373;-54
2023/06/26 08:37:05;;;;;;;7.78;2.83;;;22.90;99.20;;;;;;5091261;28;20115;-51
2023/06/26 08:39:30;;;;;;;8.18;2.53;;;23.10;98.60;;;;;;5091505;28;20032;-52
2023/06/26 08:41:56;;;;;;;6.95;2.63;;;23.10;98.90;;;;;;5091408;28;20024;-50
2023/06/26 08:44:24;;;;;;;7.40;2.72;;;23.10;98.40;;;;;;5091458;28;20081;-50
2023/06/26 08:46:51;;;;;;;5.75;2.70;;;23.10;98.30;;;;;;5091357;28;20059;-49
2023/06/26 08:49:27;;;;;;;6.88;3.20;;;23.20;98.30;;;;;;5091147;28;20421;-49
2023/06/26 08:52:01;;;;;;;6.78;2.63;;;23.30;98.20;;;;;;5091149;28;20032;-51
2023/06/26 08:54:42;;;;;;;6.85;2.72;;;23.50;97.70;;;;;;5091441;28;20036;-51
2023/06/26 08:57:08;;;;;;;8.38;2.42;;;23.50;97.70;;;;;;5090432;28;20032;-54
2023/06/26 08:59:34;;;;;;;6.00;2.50;;;23.40;97.70;;;;;;5091160;28;20489;-53
2023/06/26 09:02:00;;;;;;;6.95;2.90;;;23.40;97.60;;;;;;5072847;28;20058;-49
2023/06/26 09:04:26;;;;;;;5.93;2.63;;;23.40;97.70;;;;;;5091143;28;20039;-54
2023/06/26 09:06:52;;;;;;;6.53;2.67;;;23.50;97.50;;;;;;5090808;28;20039;-54
2023/06/26 09:09:18;;;;;;;9.10;3.10;;;23.40;97.30;;;;;;5072688;28;20484;-52
2023/06/26 09:11:43;;;;;;;7.38;3.03;;;23.50;97.40;;;;;;5091221;28;20026;-52
2023/06/26 09:14:10;;;;;;;10.13;2.85;;;23.50;97.50;;;;;;5092000;28;20024;-53
2023/06/26 09:16:44;;;;;;;7.63;2.85;;;23.60;96.40;;;;;;5091577;28;20043;-53
2023/06/26 09:19:11;;;;;;;6.95;2.47;;;23.50;97.20;;;;;;5091436;28;20028;-54
2023/06/26 09:21:42;;;;;;;6.97;2.47;;;23.50;96.70;;;;;;5091508;28;20054;-52
2023/06/26 09:24:09;;;;;;;6.38;3.08;;;23.50;97.80;;;;;;5091915;28;20504;-53
2023/06/26 09:26:37;;;;;;;7.07;2.40;;;23.60;97.20;;;;;;5073027;28;20036;-52
2023/06/26 09:29:04;;;;;;;6.50;2.67;;;23.60;96.50;;;;;;5091236;28;20508;-53
2023/06/26 09:31:29;;;;;;;10.10;3.05;;;23.60;96.40;;;;;;5091218;28;20028;-53
2023/06/26 09:33:59;;;;;;;7.75;2.40;;;23.60;96.60;;;;;;5091490;28;20072;-52
2023/06/26 09:36:28;;;;;;;6.45;2.47;;;23.60;97.20;;;;;;5091572;28;20032;-54
2023/06/26 09:38:53;;;;;;;;;;;23.60;96.30;;;;;;5091441;28;20404;-53
2023/06/26 09:41:19;;;;;;;5.03;2.00;;;23.60;96.40;;;;;;5090616;28;19908;-53
2023/06/26 09:43:46;;;;;;;6.97;2.53;;;23.60;96.80;;;;;;5090725;28;20032;-53
2023/06/26 09:46:17;;;;;;;8.02;2.95;;;23.90;95.80;;;;;;5090538;28;20126;-55
2023/06/26 09:48:43;;;;;;;5.88;2.60;;;23.90;95.10;;;;;;5056006;28;20146;-52
2023/06/26 09:51:09;;;;;;;7.72;2.42;;;24.00;95.80;;;;;;5090478;28;20506;-54
2023/06/26 09:53:36;;;;;;;6.82;2.67;;;24.00;95.40;;;;;;5090804;28;20028;-53
2023/06/26 09:56:06;;;;;;;8.43;2.55;;;24.00;95.40;;;;;;5090471;28;20450;-54
2023/06/26 09:58:33;;;;;;;4.28;2.13;;;23.90;95.30;;;;;;5090501;28;20038;-54
2023/06/26 10:00:58;;;;;;;6.43;2.10;;;23.90;94.80;;;;;;5090505;28;20032;-53
2023/06/26 10:03:24;;;;;;;3.55;2.00;;;23.80;95.00;;;;;;5090768;28;20058;-51
2023/06/26 10:05:50;;;;;;;7.25;2.30;;;23.90;94.40;;;;;;5090634;28;20055;-52
2023/06/26 10:08:16;;;;;;;4.30;1.98;;;24.00;93.70;;;;;;5093233;28;20039;-54
2023/06/26 10:10:44;;;;;;;5.88;2.35;;;24.10;94.10;;;;;;5094539;28;20026;-54
2023/06/26 10:13:25;;;;;;;7.07;2.00;;;24.20;93.30;;;;;;5094862;28;20032;-54
2023/06/26 10:15:51;;;;;;;7.03;2.72;;;24.40;93.00;;;;;;5094776;28;20451;-54
2023/06/26 10:18:18;;;;;;;5.57;2.05;;;24.50;93.90;;;;;;5094420;28;20068;-53
2023/06/26 10:20:47;;;;;;;3.67;1.70;;;24.70;92.30;;;;;;5094365;28;20035;-54
2023/06/26 10:23:14;;;;;;;5.07;1.98;;;24.90;92.30;;;;;;5076370;28;20373;-50
2023/06/26 10:25:44;;;;;;;3.03;1.60;;;24.90;91.20;;;;;;5094394;28;20028;-51
2023/06/26 10:28:11;;;;;;;5.43;1.90;;;25.00;90.80;;;;;;5094173;28;20040;-51
2023/06/26 10:30:38;;;;;;;3.45;1.58;;;25.00;90.80;;;;;;5094216;28;20047;-54
2023/06/26 10:33:07;;;;;;;3.97;1.80;;;24.70;91.30;;;;;;5094270;28;20070;-53
2023/06/26 10:35:33;;;;;;;2.60;1.58;;;24.60;91.80;;;;;;5094009;28;20024;-51
2023/06/26 10:38:06;;;;;;;5.47;2.00;;;24.50;91.80;;;;;;5094139;28;20471;-52
2023/06/26 10:40:49;;;;;;;4.82;1.80;;;24.70;92.10;;;;;;5093832;28;20070;-54
2023/06/26 10:43:16;;;;;;;4.50;1.95;;;25.00;92.10;;;;;;5094229;28;20472;-54
2023/06/26 10:45:54;;;;;;;4.82;2.00;;;24.90;91.00;;;;;;5093767;28;20067;-54
2023/06/26 10:48:20;;;;;;;3.92;2.15;;;24.60;90.40;;;;;;5093737;28;20032;-54
2023/06/26 10:50:50;;;;;;;2.30;1.60;;;24.40;90.80;;;;;;5093582;28;20378;-49
2023/06/26 10:53:24;;;;;;;3.80;1.40;;;24.40;89.10;;;;;;5093968;28;20059;-52
2023/06/26 10:55:59;;;;;;;3.50;1.90;;;24.50;90.40;;;;;;5093908;28;20380;-54
2023/06/26 10:58:28;;;;;;;4.43;1.83;;;24.80;90.20;;;;;;5093453;28;20498;-54
2023/06/26 11:01:18;;;;;;;7.55;1.60;;;24.90;90.50;;;;;;5093573;28;20108;-54
2023/06/26 11:03:52;;;;;;;4.05;1.50;;;25.00;89.10;;;;;;5093477;28;20039;-54
2023/06/26 11:06:20;;;;;;;3.40;1.50;;;24.90;88.70;;;;;;5093549;28;20032;-52
2023/06/26 11:08:53;;;;;;;4.82;1.60;;;24.70;89.40;;;;;;5093387;28;20028;-51
2023/06/26 11:11:20;;;;;;;3.42;1.80;;;24.50;90.40;;;;;;5093385;28;20420;-54
2023/06/26 11:13:47;;;;;;;2.63;1.45;;;24.60;90.00;;;;;;5093339;28;20038;-54
2023/06/26 11:16:14;;;;;;;5.28;2.38;;;24.70;89.90;;;;;;5093340;28;20039;-51
2023/06/26 11:18:41;;;;;;;3.80;1.50;;;24.70;88.30;;;;;;5073988;28;20042;-52
2023/06/26 11:21:06;;;;;;;3.58;1.70;;;24.70;85.80;;;;;;5093135;28;20036;-53
2023/06/26 11:23:34;;;;;;;5.00;1.70;;;24.80;85.20;;;;;;5093093;28;20082;-52
2023/06/26 11:26:13;;;;;;;3.97;1.30;;;24.90;88.00;;;;;;5074856;28;20035;-55
2023/06/26 11:28:45;;;;;;;3.25;1.30;;;25.20;85.50;;;;;;5092953;28;20061;-52
2023/06/26 11:31:27;;;;;;;4.50;1.83;;;25.40;84.60;;;;;;5092982;28;20039;-52
2023/06/26 11:33:54;;;;;;;4.43;1.55;;;25.30;87.00;;;;;;5092861;28;20035;-53
2023/06/26 11:36:22;;;;;;;2.95;1.10;;;25.20;86.00;;;;;;5092884;28;20042;-55
2023/06/26 11:38:53;;;;;;;2.85;1.08;;;25.10;81.90;;;;;;5092849;28;20108;-54
2023/06/26 11:41:19;;;;;;;1.35;1.00;;;24.90;81.50;;;;;;5092766;28;20035;-53
2023/06/26 11:43:45;;;;;;;3.92;1.00;;;24.90;81.90;;;;;;5092771;28;20024;-55
2023/06/26 11:46:10;;;;;;;2.75;1.00;;;24.80;80.30;;;;;;5092735;28;20431;-53
2023/06/26 11:48:36;;;;;;;2.72;1.10;;;24.90;81.20;;;;;;5092615;28;20487;-53
2023/06/26 11:51:05;;;;;;;2.90;0.93;;;24.80;80.30;;;;;;5092552;28;20532;-53
2023/06/26 11:53:31;;;;;;;1.20;0.82;;;24.50;80.30;;;;;;5092481;28;20404;-54
2023/06/26 11:55:56;;;;;;;2.45;1.23;;;24.30;81.20;;;;;;5092580;28;20017;-53
2023/06/26 11:58:22;;;;;;;3.35;1.30;;;24.20;83.20;;;;;;5092435;28;20020;-54
2023/06/26 12:00:48;;;;;;;5.53;1.23;;;24.20;84.40;;;;;;5092139;28;20020;-54
2023/06/26 12:03:15;;;;;;;2.90;1.33;;;24.00;85.50;;;;;;5092465;28;20036;-54
2023/06/26 12:05:41;;;;;;;3.45;1.30;;;24.10;87.20;;;;;;5092421;28;20024;-53
2023/06/26 12:08:07;;;;;;;3.38;1.10;;;24.20;83.00;;;;;;5092088;28;20078;-53
2023/06/26 12:10:33;;;;;;;3.58;1.30;;;24.30;84.00;;;;;;5092155;28;20024;-53
2023/06/26 12:13:01;;;;;;;2.63;0.90;;;24.50;82.10;;;;;;5092388;28;20389;-54
2023/06/26 12:15:28;;;;;;;2.60;0.85;;;24.50;80.00;;;;;;5092173;28;20446;-54
2023/06/26 12:17:54;;;;;;;3.03;0.82;;;24.50;76.60;;;;;;5092316;28;20074;-56
2023/06/26 12:20:25;;;;;;;2.03;0.90;;;24.40;75.90;;;;;;5091768;28;20500;-54
2023/06/26 12:22:51;;;;;;;2.10;0.80;;;24.40;77.30;;;;;;5091955;28;20063;-54
2023/06/26 12:25:23;;;;;;;3.55;0.90;;;24.40;76.50;;;;;;5091953;28;20067;-49
2023/06/26 12:27:49;;;;;;;2.35;0.95;;;24.60;76.30;;;;;;5073563;28;20028;-54
2023/06/26 12:30:15;;;;;;;1.58;0.50;;;24.80;74.70;;;;;;5091497;28;20036;-53
2023/06/26 12:32:45;;;;;;;1.67;0.70;;;24.80;76.40;;;;;;5091881;28;20074;-54
2023/06/26 12:35:11;;;;;;;1.45;0.75;;;24.70;77.50;;;;;;5091756;28;20062;-54
2023/06/26 12:37:40;;;;;;;1.45;0.70;;;24.60;77.60;;;;;;5091714;28;20039;-55
2023/06/26 12:40:17;;;;;;;1.60;0.80;;;24.60;78.40;;;;;;5091397;28;20038;-55
2023/06/26 12:42:43;;;;;;;2.15;0.82;;;24.70;76.80;;;;;;5091688;28;20397;-55
2023/06/26 12:45:13;;;;;;;4.00;0.95;;;24.80;77.20;;;;;;5091621;28;20043;-54